sensor_id;sensor_type;location;lat;lon;timestamp;P1;durP1;ratioP1;P2;durP2;ratioP2
37115;SDS011;23025;41.996;23.098;2024-01-07T00:01:51;170.35;;;165.27;;
37115;SDS011;23025;41.996;23.098;2024-01-07T00:04:17;155.98;;;151.23;;
37115;SDS011;23025;41.996;23.098;2024-01-07T00:06:44;175.10;;;169.77;;
37115;SDS011;23025;41.996;23.098;2024-01-07T00:09:12;161.25;;;156.25;;
37115;SDS011;23025;41.996;23.098;2024-01-07T00:11:38;161.07;;;156.10;;
37115;SDS011;23025;41.996;23.098;2024-01-07T00:14:05;173.73;;;168.60;;
37115;SDS011;23025;41.996;23.098;2024-01-07T00:16:31;155.57;;;150.88;;
37115;SDS011;23025;41.996;23.098;2024-01-07T00:18:59;160.18;;;155.32;;
37115;SDS011;23025;41.996;23.098;2024-01-07T00:21:25;180.45;;;175.15;;
37115;SDS011;23025;41.996;23.098;2024-01-07T00:23:52;179.10;;;173.80;;
37115;SDS011;23025;41.996;23.098;2024-01-07T00:26:20;155.73;;;151.02;;
37115;SDS011;23025;41.996;23.098;2024-01-07T00:28:46;160.05;;;155.23;;
37115;SDS011;23025;41.996;23.098;2024-01-07T00:31:13;155.25;;;150.60;;
37115;SDS011;23025;41.996;23.098;2024-01-07T00:33:39;157.90;;;152.93;;
37115;SDS011;23025;41.996;23.098;2024-01-07T00:36:06;108.45;;;104.95;;
37115;SDS011;23025;41.996;23.098;2024-01-07T00:38:32;105.53;;;102.10;;
37115;SDS011;23025;41.996;23.098;2024-01-07T00:40:59;158.00;;;153.20;;
37115;SDS011;23025;41.996;23.098;2024-01-07T00:43:26;179.18;;;173.95;;
37115;SDS011;23025;41.996;23.098;2024-01-07T00:45:53;172.63;;;167.48;;
37115;SDS011;23025;41.996;23.098;2024-01-07T00:48:19;162.23;;;157.27;;
37115;SDS011;23025;41.996;23.098;2024-01-07T00:50:46;168.50;;;163.35;;
37115;SDS011;23025;41.996;23.098;2024-01-07T00:53:12;164.07;;;158.88;;
37115;SDS011;23025;41.996;23.098;2024-01-07T00:55:39;162.23;;;157.00;;
37115;SDS011;23025;41.996;23.098;2024-01-07T01:00:33;151.63;;;146.98;;
37115;SDS011;23025;41.996;23.098;2024-01-07T01:02:59;151.23;;;146.60;;
37115;SDS011;23025;41.996;23.098;2024-01-07T01:05:26;102.53;;;98.97;;
37115;SDS011;23025;41.996;23.098;2024-01-07T01:07:52;162.30;;;157.40;;
37115;SDS011;23025;41.996;23.098;2024-01-07T01:10:18;230.03;;;223.37;;
37115;SDS011;23025;41.996;23.098;2024-01-07T01:12:45;170.60;;;165.43;;
37115;SDS011;23025;41.996;23.098;2024-01-07T01:15:12;163.77;;;158.68;;
37115;SDS011;23025;41.996;23.098;2024-01-07T01:17:42;158.82;;;153.70;;
37115;SDS011;23025;41.996;23.098;2024-01-07T01:20:09;157.32;;;152.30;;
37115;SDS011;23025;41.996;23.098;2024-01-07T01:22:36;111.78;;;108.05;;
37115;SDS011;23025;41.996;23.098;2024-01-07T01:25:03;173.38;;;168.05;;
37115;SDS011;23025;41.996;23.098;2024-01-07T01:27:29;173.68;;;168.48;;
37115;SDS011;23025;41.996;23.098;2024-01-07T01:29:56;160.27;;;155.43;;
37115;SDS011;23025;41.996;23.098;2024-01-07T01:32:22;160.30;;;155.18;;
37115;SDS011;23025;41.996;23.098;2024-01-07T01:34:50;149.45;;;144.73;;
37115;SDS011;23025;41.996;23.098;2024-01-07T01:37:17;147.23;;;142.57;;
37115;SDS011;23025;41.996;23.098;2024-01-07T01:39:43;162.18;;;157.13;;
37115;SDS011;23025;41.996;23.098;2024-01-07T01:42:09;157.25;;;152.30;;
37115;SDS011;23025;41.996;23.098;2024-01-07T01:44:36;153.68;;;148.82;;
37115;SDS011;23025;41.996;23.098;2024-01-07T01:47:02;159.27;;;154.18;;
37115;SDS011;23025;41.996;23.098;2024-01-07T01:49:29;144.40;;;139.85;;
37115;SDS011;23025;41.996;23.098;2024-01-07T01:51:57;166.60;;;161.65;;
37115;SDS011;23025;41.996;23.098;2024-01-07T01:54:23;150.07;;;145.48;;
37115;SDS011;23025;41.996;23.098;2024-01-07T01:56:50;147.63;;;142.85;;
37115;SDS011;23025;41.996;23.098;2024-01-07T01:59:17;155.15;;;150.07;;
37115;SDS011;23025;41.996;23.098;2024-01-07T02:01:44;158.35;;;153.35;;
37115;SDS011;23025;41.996;23.098;2024-01-07T02:04:12;156.07;;;151.35;;
37115;SDS011;23025;41.996;23.098;2024-01-07T02:06:40;155.60;;;150.95;;
37115;SDS011;23025;41.996;23.098;2024-01-07T02:09:08;165.55;;;160.35;;
37115;SDS011;23025;41.996;23.098;2024-01-07T02:11:34;165.90;;;160.85;;
37115;SDS011;23025;41.996;23.098;2024-01-07T02:14:01;146.43;;;141.95;;
37115;SDS011;23025;41.996;23.098;2024-01-07T02:16:27;150.75;;;145.98;;
37115;SDS011;23025;41.996;23.098;2024-01-07T02:18:54;151.93;;;147.38;;
37115;SDS011;23025;41.996;23.098;2024-01-07T02:21:20;147.40;;;142.35;;
37115;SDS011;23025;41.996;23.098;2024-01-07T02:23:47;132.95;;;128.85;;
37115;SDS011;23025;41.996;23.098;2024-01-07T02:26:15;89.78;;;86.85;;
37115;SDS011;23025;41.996;23.098;2024-01-07T02:28:41;136.98;;;132.75;;
37115;SDS011;23025;41.996;23.098;2024-01-07T02:31:08;138.85;;;134.45;;
37115;SDS011;23025;41.996;23.098;2024-01-07T02:33:34;133.18;;;129.00;;
37115;SDS011;23025;41.996;23.098;2024-01-07T02:36:01;136.32;;;132.15;;
37115;SDS011;23025;41.996;23.098;2024-01-07T02:40:53;124.10;;;120.20;;
37115;SDS011;23025;41.996;23.098;2024-01-07T02:43:21;128.48;;;124.47;;
37115;SDS011;23025;41.996;23.098;2024-01-07T02:45:48;132.95;;;128.88;;
37115;SDS011;23025;41.996;23.098;2024-01-07T02:48:14;127.90;;;123.75;;
37115;SDS011;23025;41.996;23.098;2024-01-07T02:50:41;138.10;;;133.85;;
37115;SDS011;23025;41.996;23.098;2024-01-07T02:53:07;130.00;;;125.95;;
37115;SDS011;23025;41.996;23.098;2024-01-07T02:55:36;140.18;;;135.88;;
37115;SDS011;23025;41.996;23.098;2024-01-07T02:58:02;126.43;;;122.53;;
37115;SDS011;23025;41.996;23.098;2024-01-07T03:00:30;134.77;;;130.68;;
37115;SDS011;23025;41.996;23.098;2024-01-07T03:02:56;133.80;;;129.68;;
37115;SDS011;23025;41.996;23.098;2024-01-07T03:05:23;136.25;;;132.05;;
37115;SDS011;23025;41.996;23.098;2024-01-07T03:07:49;148.75;;;144.15;;
37115;SDS011;23025;41.996;23.098;2024-01-07T03:10:16;91.60;;;88.57;;
37115;SDS011;23025;41.996;23.098;2024-01-07T03:12:42;126.72;;;122.75;;
37115;SDS011;23025;41.996;23.098;2024-01-07T03:15:09;134.30;;;129.70;;
37115;SDS011;23025;41.996;23.098;2024-01-07T03:17:37;130.95;;;126.85;;
37115;SDS011;23025;41.996;23.098;2024-01-07T03:20:03;138.10;;;133.75;;
37115;SDS011;23025;41.996;23.098;2024-01-07T03:22:30;145.45;;;141.05;;
37115;SDS011;23025;41.996;23.098;2024-01-07T03:24:57;122.57;;;118.72;;
37115;SDS011;23025;41.996;23.098;2024-01-07T03:27:23;80.25;;;77.60;;
37115;SDS011;23025;41.996;23.098;2024-01-07T03:29:49;107.35;;;103.93;;
37115;SDS011;23025;41.996;23.098;2024-01-07T03:32:16;114.45;;;110.82;;
37115;SDS011;23025;41.996;23.098;2024-01-07T03:34:45;120.05;;;116.22;;
37115;SDS011;23025;41.996;23.098;2024-01-07T03:37:11;110.45;;;106.93;;
37115;SDS011;23025;41.996;23.098;2024-01-07T03:39:37;123.30;;;119.35;;
37115;SDS011;23025;41.996;23.098;2024-01-07T03:42:04;120.80;;;116.97;;
37115;SDS011;23025;41.996;23.098;2024-01-07T03:44:36;111.60;;;108.05;;
37115;SDS011;23025;41.996;23.098;2024-01-07T03:47:03;126.43;;;122.50;;
37115;SDS011;23025;41.996;23.098;2024-01-07T03:49:29;123.20;;;119.32;;
37115;SDS011;23025;41.996;23.098;2024-01-07T03:51:57;122.93;;;119.05;;
37115;SDS011;23025;41.996;23.098;2024-01-07T03:54:23;133.60;;;129.45;;
37115;SDS011;23025;41.996;23.098;2024-01-07T03:56:50;68.47;;;66.18;;
37115;SDS011;23025;41.996;23.098;2024-01-07T03:59:16;128.27;;;124.28;;
37115;SDS011;23025;41.996;23.098;2024-01-07T04:01:43;123.90;;;120.03;;
37115;SDS011;23025;41.996;23.098;2024-01-07T04:04:09;128.13;;;123.97;;
37115;SDS011;23025;41.996;23.098;2024-01-07T04:06:36;121.28;;;117.43;;
37115;SDS011;23025;41.996;23.098;2024-01-07T04:09:04;108.28;;;104.80;;
37115;SDS011;23025;41.996;23.098;2024-01-07T04:11:30;105.70;;;102.28;;
37115;SDS011;23025;41.996;23.098;2024-01-07T04:13:57;113.25;;;109.68;;
37115;SDS011;23025;41.996;23.098;2024-01-07T04:16:23;113.22;;;109.63;;
37115;SDS011;23025;41.996;23.098;2024-01-07T04:18:50;117.75;;;114.03;;
37115;SDS011;23025;41.996;23.098;2024-01-07T04:21:16;116.57;;;112.85;;
37115;SDS011;23025;41.996;23.098;2024-01-07T04:23:42;117.07;;;113.30;;
37115;SDS011;23025;41.996;23.098;2024-01-07T04:26:11;111.70;;;108.13;;
37115;SDS011;23025;41.996;23.098;2024-01-07T04:28:39;112.78;;;109.15;;
37115;SDS011;23025;41.996;23.098;2024-01-07T04:31:07;113.65;;;110.07;;
37115;SDS011;23025;41.996;23.098;2024-01-07T04:33:33;99.13;;;95.93;;
37115;SDS011;23025;41.996;23.098;2024-01-07T04:35:59;115.90;;;112.20;;
37115;SDS011;23025;41.996;23.098;2024-01-07T04:38:26;112.47;;;108.82;;
37115;SDS011;23025;41.996;23.098;2024-01-07T04:40:53;111.10;;;107.57;;
37115;SDS011;23025;41.996;23.098;2024-01-07T04:43:21;117.25;;;113.57;;
37115;SDS011;23025;41.996;23.098;2024-01-07T04:45:47;104.55;;;101.20;;
37115;SDS011;23025;41.996;23.098;2024-01-07T04:48:14;100.28;;;97.05;;
37115;SDS011;23025;41.996;23.098;2024-01-07T04:50:40;106.20;;;102.78;;
37115;SDS011;23025;41.996;23.098;2024-01-07T04:53:07;98.50;;;95.30;;
37115;SDS011;23025;41.996;23.098;2024-01-07T04:55:33;113.22;;;109.65;;
37115;SDS011;23025;41.996;23.098;2024-01-07T04:58:00;119.43;;;115.68;;
37115;SDS011;23025;41.996;23.098;2024-01-07T05:00:28;122.05;;;118.20;;
37115;SDS011;23025;41.996;23.098;2024-01-07T05:02:54;71.07;;;68.70;;
37115;SDS011;23025;41.996;23.098;2024-01-07T05:05:21;116.57;;;112.85;;
37115;SDS011;23025;41.996;23.098;2024-01-07T05:07:48;115.43;;;111.70;;
37115;SDS011;23025;41.996;23.098;2024-01-07T05:10:14;117.25;;;113.57;;
37115;SDS011;23025;41.996;23.098;2024-01-07T05:12:41;114.40;;;110.75;;
37115;SDS011;23025;41.996;23.098;2024-01-07T05:15:08;102.35;;;99.05;;
37115;SDS011;23025;41.996;23.098;2024-01-07T05:17:35;136.80;;;132.68;;
37115;SDS011;23025;41.996;23.098;2024-01-07T05:20:02;114.50;;;110.93;;
37115;SDS011;23025;41.996;23.098;2024-01-07T05:22:30;130.75;;;126.70;;
37115;SDS011;23025;41.996;23.098;2024-01-07T05:24:56;103.95;;;100.65;;
37115;SDS011;23025;41.996;23.098;2024-01-07T05:27:23;104.93;;;101.57;;
37115;SDS011;23025;41.996;23.098;2024-01-07T05:29:50;114.10;;;110.40;;
37115;SDS011;23025;41.996;23.098;2024-01-07T05:32:16;126.18;;;122.05;;
37115;SDS011;23025;41.996;23.098;2024-01-07T05:34:44;121.10;;;117.35;;
37115;SDS011;23025;41.996;23.098;2024-01-07T05:37:11;98.35;;;95.15;;
37115;SDS011;23025;41.996;23.098;2024-01-07T05:39:37;115.60;;;111.93;;
37115;SDS011;23025;41.996;23.098;2024-01-07T05:42:04;106.93;;;103.50;;
37115;SDS011;23025;41.996;23.098;2024-01-07T05:44:30;117.63;;;113.90;;
37115;SDS011;23025;41.996;23.098;2024-01-07T05:46:57;120.82;;;117.03;;
37115;SDS011;23025;41.996;23.098;2024-01-07T05:49:23;115.70;;;112.05;;
37115;SDS011;23025;41.996;23.098;2024-01-07T05:51:51;107.72;;;104.30;;
37115;SDS011;23025;41.996;23.098;2024-01-07T05:54:18;105.88;;;102.50;;
37115;SDS011;23025;41.996;23.098;2024-01-07T05:56:44;108.68;;;105.20;;
37115;SDS011;23025;41.996;23.098;2024-01-07T05:59:11;114.57;;;110.93;;
37115;SDS011;23025;41.996;23.098;2024-01-07T06:01:37;111.70;;;108.05;;
37115;SDS011;23025;41.996;23.098;2024-01-07T06:04:04;116.60;;;112.90;;
37115;SDS011;23025;41.996;23.098;2024-01-07T06:06:30;104.35;;;100.97;;
37115;SDS011;23025;41.996;23.098;2024-01-07T06:09:00;115.18;;;111.50;;
37115;SDS011;23025;41.996;23.098;2024-01-07T06:11:27;117.28;;;113.60;;
37115;SDS011;23025;41.996;23.098;2024-01-07T06:13:53;109.75;;;106.25;;
37115;SDS011;23025;41.996;23.098;2024-01-07T06:16:20;121.88;;;118.10;;
37115;SDS011;23025;41.996;23.098;2024-01-07T06:18:46;101.50;;;98.13;;
37115;SDS011;23025;41.996;23.098;2024-01-07T06:21:13;108.22;;;104.38;;
37115;SDS011;23025;41.996;23.098;2024-01-07T06:23:39;119.93;;;116.18;;
37115;SDS011;23025;41.996;23.098;2024-01-07T06:26:07;113.80;;;110.15;;
37115;SDS011;23025;41.996;23.098;2024-01-07T06:28:34;121.93;;;118.10;;
37115;SDS011;23025;41.996;23.098;2024-01-07T06:31:02;69.28;;;66.88;;
37115;SDS011;23025;41.996;23.098;2024-01-07T06:33:29;111.65;;;108.10;;
37115;SDS011;23025;41.996;23.098;2024-01-07T06:35:55;98.60;;;95.40;;
37115;SDS011;23025;41.996;23.098;2024-01-07T06:38:22;117.63;;;113.88;;
37115;SDS011;23025;41.996;23.098;2024-01-07T06:40:49;112.75;;;109.20;;
37115;SDS011;23025;41.996;23.098;2024-01-07T06:43:16;111.75;;;108.20;;
37115;SDS011;23025;41.996;23.098;2024-01-07T06:45:43;112.18;;;108.60;;
37115;SDS011;23025;41.996;23.098;2024-01-07T06:48:10;111.95;;;108.40;;
37115;SDS011;23025;41.996;23.098;2024-01-07T06:50:36;103.50;;;100.18;;
37115;SDS011;23025;41.996;23.098;2024-01-07T06:53:03;115.90;;;112.22;;
37115;SDS011;23025;41.996;23.098;2024-01-07T06:55:29;121.00;;;117.18;;
37115;SDS011;23025;41.996;23.098;2024-01-07T06:57:56;111.72;;;108.15;;
37115;SDS011;23025;41.996;23.098;2024-01-07T07:00:24;117.13;;;113.40;;
37115;SDS011;23025;41.996;23.098;2024-01-07T07:02:50;118.20;;;114.38;;
37115;SDS011;23025;41.996;23.098;2024-01-07T07:05:17;112.10;;;108.53;;
37115;SDS011;23025;41.996;23.098;2024-01-07T07:07:43;112.80;;;109.20;;
37115;SDS011;23025;41.996;23.098;2024-01-07T07:12:36;105.32;;;101.95;;
37115;SDS011;23025;41.996;23.098;2024-01-07T07:15:03;117.75;;;114.10;;
37115;SDS011;23025;41.996;23.098;2024-01-07T07:17:31;108.45;;;105.00;;
37115;SDS011;23025;41.996;23.098;2024-01-07T07:19:57;123.72;;;119.82;;
37115;SDS011;23025;41.996;23.098;2024-01-07T07:22:24;113.68;;;110.07;;
37115;SDS011;23025;41.996;23.098;2024-01-07T07:24:50;111.75;;;108.07;;
37115;SDS011;23025;41.996;23.098;2024-01-07T07:27:17;122.53;;;118.50;;
37115;SDS011;23025;41.996;23.098;2024-01-07T07:29:43;77.65;;;75.05;;
37115;SDS011;23025;41.996;23.098;2024-01-07T07:32:10;112.40;;;108.85;;
37115;SDS011;23025;41.996;23.098;2024-01-07T07:34:38;113.95;;;110.30;;
37115;SDS011;23025;41.996;23.098;2024-01-07T07:39:30;108.18;;;104.65;;
37115;SDS011;23025;41.996;23.098;2024-01-07T07:41:57;115.65;;;111.93;;
37115;SDS011;23025;41.996;23.098;2024-01-07T07:56:36;112.07;;;108.53;;
37115;SDS011;23025;41.996;23.098;2024-01-07T07:59:03;118.07;;;114.25;;
37115;SDS011;23025;41.996;23.098;2024-01-07T08:01:30;129.70;;;125.65;;
37115;SDS011;23025;41.996;23.098;2024-01-07T08:03:56;123.32;;;119.40;;
37115;SDS011;23025;41.996;23.098;2024-01-07T08:06:23;117.18;;;113.50;;
37115;SDS011;23025;41.996;23.098;2024-01-07T08:08:49;113.55;;;109.78;;
37115;SDS011;23025;41.996;23.098;2024-01-07T08:11:16;89.38;;;86.13;;
37115;SDS011;23025;41.996;23.098;2024-01-07T08:13:44;123.38;;;119.38;;
37115;SDS011;23025;41.996;23.098;2024-01-07T08:16:11;135.77;;;131.38;;
37115;SDS011;23025;41.996;23.098;2024-01-07T08:18:37;129.70;;;125.43;;
37115;SDS011;23025;41.996;23.098;2024-01-07T08:21:04;129.55;;;125.45;;
37115;SDS011;23025;41.996;23.098;2024-01-07T08:23:30;126.53;;;122.40;;
37115;SDS011;23025;41.996;23.098;2024-01-07T08:25:57;137.18;;;132.90;;
37115;SDS011;23025;41.996;23.098;2024-01-07T08:28:24;134.50;;;130.38;;
37115;SDS011;23025;41.996;23.098;2024-01-07T08:30:52;123.47;;;119.28;;
37115;SDS011;23025;41.996;23.098;2024-01-07T08:33:18;129.23;;;125.22;;
37115;SDS011;23025;41.996;23.098;2024-01-07T08:35:45;136.20;;;132.02;;
37115;SDS011;23025;41.996;23.098;2024-01-07T08:38:12;121.88;;;117.97;;
37115;SDS011;23025;41.996;23.098;2024-01-07T08:40:39;136.02;;;131.85;;
37115;SDS011;23025;41.996;23.098;2024-01-07T08:43:06;145.13;;;140.40;;
37115;SDS011;23025;41.996;23.098;2024-01-07T08:45:32;134.63;;;130.38;;
37115;SDS011;23025;41.996;23.098;2024-01-07T08:48:00;124.15;;;120.10;;
37115;SDS011;23025;41.996;23.098;2024-01-07T08:50:26;121.95;;;117.97;;
37115;SDS011;23025;41.996;23.098;2024-01-07T08:52:53;136.90;;;132.73;;
37115;SDS011;23025;41.996;23.098;2024-01-07T08:55:20;136.18;;;131.82;;
37115;SDS011;23025;41.996;23.098;2024-01-07T08:57:46;135.45;;;131.30;;
37115;SDS011;23025;41.996;23.098;2024-01-07T09:00:14;100.75;;;97.45;;
37115;SDS011;23025;41.996;23.098;2024-01-07T09:02:41;140.30;;;135.73;;
37115;SDS011;23025;41.996;23.098;2024-01-07T09:05:09;138.73;;;134.40;;
37115;SDS011;23025;41.996;23.098;2024-01-07T09:07:35;142.07;;;137.70;;
37115;SDS011;23025;41.996;23.098;2024-01-07T09:10:02;148.23;;;143.55;;
37115;SDS011;23025;41.996;23.098;2024-01-07T09:12:33;139.98;;;135.68;;
37115;SDS011;23025;41.996;23.098;2024-01-07T09:15:00;136.45;;;132.25;;
37115;SDS011;23025;41.996;23.098;2024-01-07T09:17:26;97.32;;;94.18;;
37115;SDS011;23025;41.996;23.098;2024-01-07T09:19:53;135.05;;;130.80;;
37115;SDS011;23025;41.996;23.098;2024-01-07T09:22:21;126.10;;;122.00;;
37115;SDS011;23025;41.996;23.098;2024-01-07T09:24:48;127.60;;;123.57;;
37115;SDS011;23025;41.996;23.098;2024-01-07T09:27:14;136.75;;;132.48;;
37115;SDS011;23025;41.996;23.098;2024-01-07T09:29:41;126.25;;;122.10;;
37115;SDS011;23025;41.996;23.098;2024-01-07T09:32:07;128.63;;;124.63;;
37115;SDS011;23025;41.996;23.098;2024-01-07T09:34:34;146.23;;;141.77;;
37115;SDS011;23025;41.996;23.098;2024-01-07T09:37:01;145.27;;;140.88;;
37115;SDS011;23025;41.996;23.098;2024-01-07T09:39:28;131.70;;;127.28;;
37115;SDS011;23025;41.996;23.098;2024-01-07T09:41:55;137.93;;;133.68;;
37115;SDS011;23025;41.996;23.098;2024-01-07T09:44:21;98.38;;;95.00;;
37115;SDS011;23025;41.996;23.098;2024-01-07T09:46:48;138.38;;;134.02;;
37115;SDS011;23025;41.996;23.098;2024-01-07T09:49:17;148.57;;;144.07;;
37115;SDS011;23025;41.996;23.098;2024-01-07T09:51:44;126.88;;;122.85;;
37115;SDS011;23025;41.996;23.098;2024-01-07T09:54:11;134.25;;;129.82;;
37115;SDS011;23025;41.996;23.098;2024-01-07T09:56:42;130.73;;;126.65;;
37115;SDS011;23025;41.996;23.098;2024-01-07T09:59:09;123.00;;;119.15;;
37115;SDS011;23025;41.996;23.098;2024-01-07T10:01:35;134.15;;;130.00;;
37115;SDS011;23025;41.996;23.098;2024-01-07T10:04:02;130.63;;;126.50;;
37115;SDS011;23025;41.996;23.098;2024-01-07T10:06:29;136.93;;;132.65;;
37115;SDS011;23025;41.996;23.098;2024-01-07T10:08:55;135.57;;;131.38;;
37115;SDS011;23025;41.996;23.098;2024-01-07T10:11:22;148.45;;;143.95;;
37115;SDS011;23025;41.996;23.098;2024-01-07T10:13:50;141.52;;;137.18;;
37115;SDS011;23025;41.996;23.098;2024-01-07T10:16:17;135.38;;;130.68;;
37115;SDS011;23025;41.996;23.098;2024-01-07T10:18:43;142.20;;;137.88;;
37115;SDS011;23025;41.996;23.098;2024-01-07T10:21:10;163.07;;;158.05;;
37115;SDS011;23025;41.996;23.098;2024-01-07T10:23:36;134.85;;;130.68;;
37115;SDS011;23025;41.996;23.098;2024-01-07T10:26:03;110.85;;;107.30;;
37115;SDS011;23025;41.996;23.098;2024-01-07T10:28:31;152.40;;;147.75;;
37115;SDS011;23025;41.996;23.098;2024-01-07T10:30:59;158.80;;;153.82;;
37115;SDS011;23025;41.996;23.098;2024-01-07T10:33:30;159.30;;;154.52;;
37115;SDS011;23025;41.996;23.098;2024-01-07T10:38:23;141.85;;;137.43;;
37115;SDS011;23025;41.996;23.098;2024-01-07T10:40:50;162.25;;;157.38;;
37115;SDS011;23025;41.996;23.098;2024-01-07T10:43:16;163.57;;;158.70;;
37115;SDS011;23025;41.996;23.098;2024-01-07T10:45:43;153.52;;;148.90;;
37115;SDS011;23025;41.996;23.098;2024-01-07T10:48:15;163.43;;;158.35;;
37115;SDS011;23025;41.996;23.098;2024-01-07T10:50:43;173.95;;;168.88;;
37115;SDS011;23025;41.996;23.098;2024-01-07T10:53:10;168.50;;;163.55;;
37115;SDS011;23025;41.996;23.098;2024-01-07T10:55:39;181.80;;;176.48;;
37115;SDS011;23025;41.996;23.098;2024-01-07T10:58:10;106.13;;;102.72;;
37115;SDS011;23025;41.996;23.098;2024-01-07T11:00:37;147.07;;;142.60;;
37115;SDS011;23025;41.996;23.098;2024-01-07T11:05:33;160.65;;;155.68;;
37115;SDS011;23025;41.996;23.098;2024-01-07T11:08:04;146.68;;;142.07;;
37115;SDS011;23025;41.996;23.098;2024-01-07T11:10:33;160.90;;;156.05;;
37115;SDS011;23025;41.996;23.098;2024-01-07T11:13:01;155.63;;;150.07;;
37115;SDS011;23025;41.996;23.098;2024-01-07T11:20:40;164.48;;;159.48;;
37115;SDS011;23025;41.996;23.098;2024-01-07T11:25:51;174.13;;;168.63;;
37115;SDS011;23025;41.996;23.098;2024-01-07T11:28:17;174.65;;;169.55;;
37115;SDS011;23025;41.996;23.098;2024-01-07T11:30:45;184.27;;;179.00;;
37115;SDS011;23025;41.996;23.098;2024-01-07T11:35:59;159.23;;;154.25;;
37115;SDS011;23025;41.996;23.098;2024-01-07T11:40:53;146.52;;;142.05;;
37115;SDS011;23025;41.996;23.098;2024-01-07T11:43:21;170.48;;;165.45;;
37115;SDS011;23025;41.996;23.098;2024-01-07T11:45:49;165.18;;;160.13;;
37115;SDS011;23025;41.996;23.098;2024-01-07T11:48:15;110.03;;;106.47;;
37115;SDS011;23025;41.996;23.098;2024-01-07T11:50:42;176.05;;;170.88;;
37115;SDS011;23025;41.996;23.098;2024-01-07T11:53:10;179.75;;;174.52;;
37115;SDS011;23025;41.996;23.098;2024-01-07T11:55:37;154.80;;;150.10;;
37115;SDS011;23025;41.996;23.098;2024-01-07T11:58:03;146.95;;;142.48;;
37115;SDS011;23025;41.996;23.098;2024-01-07T12:00:31;152.05;;;147.35;;
37115;SDS011;23025;41.996;23.098;2024-01-07T12:02:57;156.88;;;152.13;;
37115;SDS011;23025;41.996;23.098;2024-01-07T12:05:24;163.95;;;158.98;;
37115;SDS011;23025;41.996;23.098;2024-01-07T12:07:50;165.95;;;161.02;;
37115;SDS011;23025;41.996;23.098;2024-01-07T12:10:18;177.60;;;172.43;;
37115;SDS011;23025;41.996;23.098;2024-01-07T12:12:45;158.65;;;153.95;;
37115;SDS011;23025;41.996;23.098;2024-01-07T12:15:11;167.02;;;162.02;;
37115;SDS011;23025;41.996;23.098;2024-01-07T12:20:05;147.02;;;142.60;;
37115;SDS011;23025;41.996;23.098;2024-01-07T12:25:01;153.55;;;148.93;;
37115;SDS011;23025;41.996;23.098;2024-01-07T12:27:30;162.80;;;157.95;;
37115;SDS011;23025;41.996;23.098;2024-01-07T12:29:56;149.70;;;145.05;;
37115;SDS011;23025;41.996;23.098;2024-01-07T12:32:25;168.68;;;163.73;;
37115;SDS011;23025;41.996;23.098;2024-01-07T12:34:52;153.50;;;148.80;;
37115;SDS011;23025;41.996;23.098;2024-01-07T12:37:18;156.15;;;151.40;;
37115;SDS011;23025;41.996;23.098;2024-01-07T12:39:45;170.07;;;165.05;;
37115;SDS011;23025;41.996;23.098;2024-01-07T12:42:11;141.25;;;136.88;;
37115;SDS011;23025;41.996;23.098;2024-01-07T12:47:06;145.00;;;140.55;;
37115;SDS011;23025;41.996;23.098;2024-01-07T12:49:32;138.77;;;134.55;;
37115;SDS011;23025;41.996;23.098;2024-01-07T12:51:59;144.68;;;140.20;;
37115;SDS011;23025;41.996;23.098;2024-01-07T12:54:25;141.57;;;137.27;;
37115;SDS011;23025;41.996;23.098;2024-01-07T12:56:52;171.38;;;166.27;;
37115;SDS011;23025;41.996;23.098;2024-01-07T12:59:18;147.85;;;143.23;;
37115;SDS011;23025;41.996;23.098;2024-01-07T13:01:45;155.18;;;150.50;;
37115;SDS011;23025;41.996;23.098;2024-01-07T13:04:13;98.85;;;95.68;;
37115;SDS011;23025;41.996;23.098;2024-01-07T13:06:39;164.77;;;159.80;;
37115;SDS011;23025;41.996;23.098;2024-01-07T13:09:05;153.30;;;148.65;;
37115;SDS011;23025;41.996;23.098;2024-01-07T13:11:33;137.65;;;133.43;;
37115;SDS011;23025;41.996;23.098;2024-01-07T13:13:59;160.57;;;155.82;;
37115;SDS011;23025;41.996;23.098;2024-01-07T13:16:27;155.52;;;150.82;;
37115;SDS011;23025;41.996;23.098;2024-01-07T13:18:53;149.02;;;144.50;;
37115;SDS011;23025;41.996;23.098;2024-01-07T13:21:21;157.25;;;152.32;;
37115;SDS011;23025;41.996;23.098;2024-01-07T13:23:47;156.73;;;152.00;;
37115;SDS011;23025;41.996;23.098;2024-01-07T13:26:15;116.97;;;113.20;;
37115;SDS011;23025;41.996;23.098;2024-01-07T13:28:42;172.98;;;167.88;;
37115;SDS011;23025;41.996;23.098;2024-01-07T13:31:08;162.80;;;157.70;;
37115;SDS011;23025;41.996;23.098;2024-01-07T13:33:37;163.20;;;158.20;;
37115;SDS011;23025;41.996;23.098;2024-01-07T13:36:04;166.02;;;161.05;;
37115;SDS011;23025;41.996;23.098;2024-01-07T13:38:36;169.05;;;163.90;;
37115;SDS011;23025;41.996;23.098;2024-01-07T13:41:03;172.48;;;167.27;;
37115;SDS011;23025;41.996;23.098;2024-01-07T13:43:30;178.50;;;173.13;;
37115;SDS011;23025;41.996;23.098;2024-01-07T13:45:56;158.57;;;153.77;;
37115;SDS011;23025;41.996;23.098;2024-01-07T13:48:23;175.80;;;170.63;;
37115;SDS011;23025;41.996;23.098;2024-01-07T13:50:49;161.43;;;156.25;;
37115;SDS011;23025;41.996;23.098;2024-01-07T13:53:18;167.90;;;162.82;;
37115;SDS011;23025;41.996;23.098;2024-01-07T13:55:46;166.02;;;160.88;;
37115;SDS011;23025;41.996;23.098;2024-01-07T13:58:14;172.77;;;167.65;;
37115;SDS011;23025;41.996;23.098;2024-01-07T14:00:41;181.25;;;175.82;;
37115;SDS011;23025;41.996;23.098;2024-01-07T14:03:08;161.45;;;156.63;;
37115;SDS011;23025;41.996;23.098;2024-01-07T14:05:34;162.10;;;157.23;;
37115;SDS011;23025;41.996;23.098;2024-01-07T14:08:00;163.20;;;158.07;;
37115;SDS011;23025;41.996;23.098;2024-01-07T14:10:27;111.10;;;107.55;;
37115;SDS011;23025;41.996;23.098;2024-01-07T14:12:55;214.57;;;208.48;;
37115;SDS011;23025;41.996;23.098;2024-01-07T14:15:22;179.50;;;174.25;;
37115;SDS011;23025;41.996;23.098;2024-01-07T14:17:48;168.13;;;163.02;;
37115;SDS011;23025;41.996;23.098;2024-01-07T14:20:15;113.63;;;109.97;;
37115;SDS011;23025;41.996;23.098;2024-01-07T14:22:41;162.07;;;157.23;;
37115;SDS011;23025;41.996;23.098;2024-01-07T14:25:08;140.73;;;136.38;;
37115;SDS011;23025;41.996;23.098;2024-01-07T14:27:34;150.55;;;146.02;;
37115;SDS011;23025;41.996;23.098;2024-01-07T14:30:02;134.60;;;130.32;;
37115;SDS011;23025;41.996;23.098;2024-01-07T14:32:29;140.15;;;135.77;;